Time;durP1;ratioP1;P1;durP2;ratioP2;P2;SDS_P1;SDS_P2;PMS_P1;PMS_P2;Temp;Humidity;BMP_temperature;BMP_pressure;BME280_temperature;BME280_humidity;BME280_pressure;Samples;Min_cycle;Max_cycle;Signal;HPM_P1;HPM_P2
2023/10/22 02:49:44;;;;;;;13.20;11.17;;;11.80;99.90;;;;;;6230897;22;20457;-93
2023/10/22 02:59:17;;;;;;;12.83;10.40;;;11.70;99.90;;;;;;6194006;22;20510;-90
2023/10/22 03:01:44;;;;;;;13.30;9.10;;;11.70;99.90;;;;;;6214193;23;20480;-89
2023/10/22 03:04:12;;;;;;;11.07;9.70;;;11.70;99.90;;;;;;6213774;22;20481;-90
2023/10/22 03:06:39;;;;;;;11.73;9.70;;;11.70;99.90;;;;;;6214252;23;20398;-89
2023/10/22 03:09:06;;;;;;;15.77;11.10;;;11.70;99.90;;;;;;6227457;22;20450;-89
2023/10/22 03:11:34;;;;;;;11.13;10.00;;;11.60;99.90;;;;;;6245120;23;20456;-89
2023/10/22 03:14:01;;;;;;;11.13;9.97;;;11.60;99.90;;;;;;6243867;23;20406;-89
2023/10/22 03:16:27;;;;;;;10.40;9.30;;;11.60;99.90;;;;;;6253135;22;20473;-89
2023/10/22 03:18:54;;;;;;;11.27;9.20;;;11.60;99.90;;;;;;6253453;22;20421;-88
2023/10/22 03:21:24;;;;;;;11.07;10.00;;;11.60;99.90;;;;;;6251711;22;20449;-88
2023/10/22 03:23:51;;;;;;;8.73;7.93;;;11.60;99.90;;;;;;6244706;23;20492;-89
2023/10/22 03:26:18;;;;;;;11.20;8.53;;;11.60;99.90;;;;;;6243404;23;20401;-89
2023/10/22 03:28:47;;;;;;;7.33;6.60;;;11.70;99.90;;;;;;6245344;23;20502;-89
2023/10/22 03:31:14;;;;;;;7.93;7.13;;;11.90;99.90;;;;;;6247715;23;20402;-89
2023/10/22 03:33:41;;;;;;;9.47;8.13;;;11.60;99.90;;;;;;6259733;23;20405;-89
2023/10/22 03:36:11;;;;;;;8.43;6.37;;;11.60;99.90;;;;;;6262187;22;20455;-88
2023/10/22 03:38:38;;;;;;;9.30;6.70;;;11.60;99.90;;;;;;6263614;23;20473;-89
2023/10/22 03:41:06;;;;;;;7.90;7.17;;;11.60;99.90;;;;;;6264465;23;20405;-89
2023/10/22 03:43:34;;;;;;;10.40;7.70;;;11.60;99.90;;;;;;6255191;23;20413;-89
2023/10/22 03:46:02;;;;;;;8.07;7.23;;;11.60;99.90;;;;;;6248522;23;20408;-88
2023/10/22 03:48:30;;;;;;;7.83;7.03;;;11.60;99.90;;;;;;6245296;23;20451;-88
2023/10/22 03:50:57;;;;;;;10.87;7.57;;;11.60;99.90;;;;;;6244896;23;20489;-89
2023/10/22 03:53:24;;;;;;;9.03;8.13;;;11.60;99.90;;;;;;6244469;23;20435;-89
2023/10/22 03:55:51;;;;;;;10.00;7.63;;;11.60;99.90;;;;;;6243754;23;20797;-89
2023/10/22 03:58:18;;;;;;;10.27;8.00;;;11.50;99.90;;;;;;6258474;22;20417;-88
2023/10/22 04:00:45;;;;;;;9.20;7.30;;;11.60;99.90;;;;;;6270691;22;20389;-88
2023/10/22 04:03:13;;;;;;;9.43;8.50;;;11.60;99.90;;;;;;6270629;22;20402;-88
2023/10/22 04:05:40;;;;;;;10.23;7.93;;;11.60;99.90;;;;;;6244656;23;20402;-89
2023/10/22 04:08:07;;;;;;;11.13;8.63;;;11.30;99.90;;;;;;6243548;23;20443;-90
2023/10/22 04:10:34;;;;;;;10.27;9.20;;;11.50;99.90;;;;;;6244299;23;20409;-90
2023/10/22 04:13:02;;;;;;;12.00;8.47;;;11.50;99.90;;;;;;6258885;22;20416;-89
2023/10/22 04:15:29;;;;;;;9.40;8.43;;;11.60;99.90;;;;;;6248348;22;20856;-90
2023/10/22 04:17:56;;;;;;;9.63;7.73;;;11.50;99.90;;;;;;6246024;23;20476;-89
2023/10/22 04:20:24;;;;;;;9.53;8.07;;;11.40;99.90;;;;;;6247057;23;20504;-90
2023/10/22 04:22:53;;;;;;;9.23;8.33;;;11.50;99.90;;;;;;6247375;23;20417;-90
2023/10/22 04:25:20;;;;;;;10.67;8.13;;;11.50;99.90;;;;;;6247213;23;20463;-90
2023/10/22 04:27:48;;;;;;;8.90;8.00;;;11.50;99.90;;;;;;6246454;23;20405;-90
2023/10/22 04:30:15;;;;;;;8.27;7.53;;;11.50;99.90;;;;;;6245678;23;20456;-90
2023/10/22 04:32:42;;;;;;;8.93;8.07;;;11.50;99.90;;;;;;6252766;23;20398;-90
2023/10/22 04:35:09;;;;;;;9.80;7.70;;;11.50;99.90;;;;;;6245643;23;20948;-88
2023/10/22 04:37:37;;;;;;;8.53;7.70;;;11.50;99.90;;;;;;6246814;23;20918;-89
2023/10/22 04:40:06;;;;;;;10.00;9.00;;;11.50;99.90;;;;;;6253982;23;20457;-89
2023/10/22 04:42:32;;;;;;;10.07;8.83;;;11.50;99.90;;;;;;6247587;22;20428;-89
2023/10/22 04:45:00;;;;;;;11.23;10.13;;;;;;;;;;6253992;22;20439;-89
2023/10/22 04:47:26;;;;;;;11.63;10.33;;;11.50;99.90;;;;;;6267954;22;20405;-89
2023/10/22 04:49:53;;;;;;;11.30;8.73;;;11.50;99.90;;;;;;6267233;22;20460;-88
2023/10/22 04:52:30;;;;;;;11.27;10.07;;;11.50;99.90;;;;;;6250114;22;20411;-89
2023/10/22 04:54:59;;;;;;;10.50;8.97;;;11.50;99.90;;;;;;6268809;22;20393;-88
2023/10/22 04:57:27;;;;;;;11.20;9.27;;;11.50;99.90;;;;;;6269914;22;20407;-88
2023/10/22 04:59:54;;;;;;;9.50;7.50;;;11.50;99.90;;;;;;6269825;22;20596;-87
2023/10/22 05:02:21;;;;;;;8.90;8.00;;;11.50;99.90;;;;;;6270029;22;20370;-87
2023/10/22 05:04:48;;;;;;;8.80;7.30;;;11.50;99.90;;;;;;6269874;22;20405;-87
2023/10/22 05:07:15;;;;;;;9.10;8.20;;;11.50;99.90;;;;;;6271434;22;20386;-88
2023/10/22 05:09:43;;;;;;;9.50;7.63;;;11.50;99.90;;;;;;6262450;22;20457;-89
2023/10/22 05:12:11;;;;;;;9.90;8.90;;;11.50;99.90;;;;;;6250509;23;20402;-89
2023/10/22 05:14:38;;;;;;;9.63;7.47;;;11.50;99.90;;;;;;6246591;23;20488;-89
2023/10/22 05:17:05;;;;;;;8.33;7.10;;;11.50;99.90;;;;;;6247469;23;20492;-89
2023/10/22 05:19:32;;;;;;;9.17;8.27;;;11.50;99.90;;;;;;6246201;23;20429;-89
2023/10/22 05:21:59;;;;;;;7.83;7.03;;;11.50;99.90;;;;;;6246849;23;20406;-89
2023/10/22 05:24:25;;;;;;;7.90;6.57;;;11.50;99.90;;;;;;6246435;23;20430;-89
2023/10/22 05:26:53;;;;;;;8.70;7.80;;;11.40;99.90;;;;;;6246567;23;20408;-89
2023/10/22 05:29:21;;;;;;;7.53;6.83;;;11.40;99.90;;;;;;6245353;23;20536;-89
2023/10/22 05:31:48;;;;;;;10.13;8.10;;;11.40;99.90;;;;;;6246326;23;20417;-89
2023/10/22 05:34:15;;;;;;;9.30;8.40;;;11.40;99.90;;;;;;6246535;23;20437;-89
2023/10/22 05:36:42;;;;;;;9.20;8.17;;;11.40;99.90;;;;;;6247059;23;20728;-89
2023/10/22 05:39:09;;;;;;;9.43;8.50;;;11.40;99.90;;;;;;6246121;23;20766;-88
2023/10/22 05:41:36;;;;;;;9.30;7.70;;;11.50;99.90;;;;;;6246431;23;20401;-89
2023/10/22 05:44:04;;;;;;;7.87;7.10;;;11.40;99.90;;;;;;6245785;23;20405;-89
2023/10/22 05:46:34;;;;;;;8.70;7.73;;;11.40;99.90;;;;;;6245847;22;20408;-89
2023/10/22 05:49:01;;;;;;;7.73;7.00;;;11.40;99.90;;;;;;6247530;23;20483;-89
2023/10/22 05:51:30;;;;;;;8.73;7.73;;;11.40;99.90;;;;;;6257819;23;20392;-88
2023/10/22 05:53:57;;;;;;;8.23;7.43;;;10.20;99.90;;;;;;6271160;22;20394;-88
2023/10/22 05:56:26;;;;;;;8.80;8.00;;;11.40;99.90;;;;;;6271313;22;20381;-89
2023/10/22 05:58:52;;;;;;;8.70;7.37;;;11.40;99.90;;;;;;6270774;22;20488;-89
2023/10/22 06:01:19;;;;;;;8.10;7.30;;;11.50;99.90;;;;;;6270965;22;20398;-89
2023/10/22 06:03:48;;;;;;;14.90;13.30;;;11.50;99.90;;;;;;6264581;22;20413;-89
2023/10/22 06:06:18;;;;;;;8.37;7.53;;;11.50;99.90;;;;;;6254881;23;20413;-90
2023/10/22 06:08:46;;;;;;;8.93;8.00;;;11.40;99.90;;;;;;6246625;23;20536;-90
2023/10/22 06:11:14;;;;;;;8.43;7.63;;;11.40;99.90;;;;;;6246249;23;20779;-90
2023/10/22 06:13:40;;;;;;;9.70;8.70;;;11.40;99.90;;;;;;6250540;23;20420;-89
2023/10/22 06:16:09;;;;;;;8.60;7.67;;;11.40;99.90;;;;;;6257421;23;20465;-88
2023/10/22 06:18:36;;;;;;;9.50;8.03;;;11.50;99.90;;;;;;6268537;23;20457;-87
2023/10/22 06:21:11;;;;;;;8.47;7.73;;;11.50;99.90;;;;;;6269673;23;20390;-88
2023/10/22 06:23:38;;;;;;;11.40;7.40;;;11.40;99.90;;;;;;6258856;23;20401;-88
2023/10/22 06:26:05;;;;;;;7.87;7.07;;;11.40;99.90;;;;;;6268364;22;20417;-88
2023/10/22 06:28:32;;;;;;;9.80;7.43;;;11.40;99.90;;;;;;6262995;23;20445;-88
2023/10/22 06:31:05;;;;;;;8.27;7.57;;;11.50;99.90;;;;;;6247295;23;20484;-89
2023/10/22 06:33:33;;;;;;;9.20;8.40;;;11.50;99.90;;;;;;6245728;23;20798;-90
2023/10/22 06:36:00;;;;;;;11.27;9.93;;;11.50;99.90;;;;;;6245263;23;20401;-89
2023/10/22 06:38:28;;;;;;;11.13;9.10;;;11.50;99.90;;;;;;6262003;23;20453;-89
2023/10/22 06:40:55;;;;;;;16.33;13.57;;;11.50;99.90;;;;;;6246666;23;20492;-89
2023/10/22 06:43:21;;;;;;;11.07;9.97;;;11.60;99.90;;;;;;6245884;23;20432;-90
2023/10/22 06:45:48;;;;;;;10.67;9.63;;;11.40;99.90;;;;;;6246586;23;20496;-90
2023/10/22 06:48:15;;;;;;;12.60;10.27;;;11.60;99.90;;;;;;6247170;22;20402;-89
2023/10/22 06:50:43;;;;;;;13.07;10.63;;;11.50;99.90;;;;;;6246089;23;20479;-89
2023/10/22 06:53:10;;;;;;;10.27;9.30;;;11.60;99.90;;;;;;6246663;23;20401;-89
2023/10/22 06:55:41;;;;;;;10.80;9.70;;;11.40;99.90;;;;;;6263713;22;20402;-89
2023/10/22 06:58:08;;;;;;;10.13;8.97;;;11.50;99.90;;;;;;6269245;22;20373;-88
2023/10/22 07:00:35;;;;;;;11.93;9.00;;;11.40;99.90;;;;;;6257328;23;20440;-89
2023/10/22 07:03:02;;;;;;;9.30;8.50;;;11.40;99.90;;;;;;6249447;23;20406;-89
2023/10/22 07:05:29;;;;;;;9.70;8.80;;;11.40;99.90;;;;;;6247600;23;20429;-89
2023/10/22 07:07:56;;;;;;;9.93;8.97;;;11.40;99.90;;;;;;6248711;23;20756;-89
2023/10/22 07:10:23;;;;;;;10.57;8.70;;;11.30;99.90;;;;;;6247660;23;20490;-89
2023/10/22 07:12:53;;;;;;;11.80;8.87;;;11.30;99.90;;;;;;6246363;23;20409;-90
2023/10/22 07:15:20;;;;;;;13.67;10.30;;;11.30;99.90;;;;;;6247072;23;20410;-90
2023/10/22 07:17:47;;;;;;;9.37;8.47;;;11.30;99.90;;;;;;6256322;22;20398;-89
2023/10/22 07:20:14;;;;;;;11.97;9.67;;;11.30;99.90;;;;;;6249652;23;20512;-89
2023/10/22 07:22:41;;;;;;;9.93;8.00;;;11.40;99.90;;;;;;6261980;23;20413;-89
2023/10/22 07:25:08;;;;;;;10.47;9.10;;;11.40;99.90;;;;;;6269788;23;20415;-89
2023/10/22 07:27:35;;;;;;;9.73;8.73;;;11.40;99.90;;;;;;6269409;22;20429;-89
2023/10/22 07:30:04;;;;;;;8.83;7.23;;;11.40;99.90;;;;;;6268570;22;20464;-88
2023/10/22 07:32:31;;;;;;;9.03;6.90;;;11.40;99.90;;;;;;6269905;22;20398;-88
2023/10/22 07:34:58;;;;;;;7.80;7.07;;;11.50;99.90;;;;;;6269875;22;20421;-88
2023/10/22 07:37:24;;;;;;;13.37;8.70;;;11.50;99.90;;;;;;6269921;22;20416;-90
2023/10/22 07:39:51;;;;;;;6.67;5.93;;;11.60;99.90;;;;;;6267917;22;20422;-88
2023/10/22 07:42:18;;;;;;;7.30;6.70;;;11.60;99.90;;;;;;6269455;23;20402;-89
2023/10/22 07:44:45;;;;;;;8.00;6.80;;;11.60;99.90;;;;;;6268577;22;20441;-88
2023/10/22 07:47:13;;;;;;;6.30;5.70;;;11.70;99.90;;;;;;6266060;23;20402;-89
2023/10/22 07:49:40;;;;;;;7.73;6.90;;;11.70;99.90;;;;;;6265022;23;20460;-89
2023/10/22 07:52:07;;;;;;;7.47;6.47;;;11.70;99.90;;;;;;6260882;23;20405;-89
2023/10/22 07:54:34;;;;;;;8.30;5.83;;;11.70;99.90;;;;;;6248704;23;20401;-88
2023/10/22 07:57:00;;;;;;;9.93;6.87;;;11.80;99.90;;;;;;6263045;22;20473;-89
2023/10/22 07:59:27;;;;;;;7.60;6.80;;;11.90;99.90;;;;;;6270066;22;20425;-88
2023/10/22 08:01:54;;;;;;;7.60;5.90;;;12.00;99.90;;;;;;6269975;22;20390;-87
2023/10/22 08:04:22;;;;;;;5.93;5.40;;;12.00;99.90;;;;;;6267027;22;20405;-89
2023/10/22 08:06:49;;;;;;;6.10;5.60;;;12.10;99.90;;;;;;6254426;23;20429;-89
2023/10/22 08:09:16;;;;;;;7.70;5.40;;;12.10;99.90;;;;;;6256671;23;20465;-89
2023/10/22 08:11:43;;;;;;;5.20;4.70;;;12.20;99.90;;;;;;6256746;22;20409;-89
2023/10/22 08:14:09;;;;;;;5.40;4.90;;;12.30;99.90;;;;;;6250066;23;20409;-89
2023/10/22 08:16:36;;;;;;;4.37;3.97;;;12.50;99.90;;;;;;6261445;23;20429;-88
2023/10/22 08:19:04;;;;;;;6.37;5.63;;;12.50;99.90;;;;;;6266205;22;20440;-88
2023/10/22 08:21:32;;;;;;;4.70;4.30;;;12.50;99.90;;;;;;6267318;22;20401;-89
2023/10/22 08:23:59;;;;;;;5.50;4.47;;;12.70;99.90;;;;;;6256496;23;20457;-89
2023/10/22 08:26:27;;;;;;;4.00;3.70;;;12.70;99.90;;;;;;6253997;23;20413;-89
2023/10/22 08:28:54;;;;;;;4.13;3.67;;;12.60;99.90;;;;;;6254079;23;20504;-89
2023/10/22 08:31:21;;;;;;;4.67;4.27;;;12.70;99.90;;;;;;6247773;23;20424;-88
2023/10/22 08:33:47;;;;;;;5.13;4.67;;;12.80;99.90;;;;;;6245889;23;20986;-88
2023/10/22 08:36:15;;;;;;;5.83;4.50;;;12.90;99.90;;;;;;6266246;23;20389;-88
2023/10/22 08:38:43;;;;;;;7.57;4.27;;;13.00;99.90;;;;;;6267515;22;20429;-89
2023/10/22 08:41:14;;;;;;;5.63;5.03;;;13.20;99.90;;;;;;6266399;23;20401;-89
2023/10/22 08:43:45;;;;;;;4.90;4.20;;;13.20;99.90;;;;;;6258672;23;20385;-89
2023/10/22 08:46:12;;;;;;;3.53;3.30;;;13.30;99.90;;;;;;6260034;23;20430;-89
2023/10/22 08:48:40;;;;;;;3.10;2.90;;;13.20;99.90;;;;;;6259840;23;20463;-89
2023/10/22 08:51:08;;;;;;;4.03;3.50;;;13.20;99.90;;;;;;6257882;23;20437;-89
2023/10/22 08:53:35;;;;;;;3.77;2.60;;;13.10;99.90;;;;;;6252489;23;20406;-89
2023/10/22 08:56:04;;;;;;;2.57;2.20;;;13.30;99.90;;;;;;6254055;23;20429;-89
2023/10/22 12:25:32;;;;;;;1.60;1.20;;;16.40;1.00;;;;;;6221432;22;20450;-94
2023/10/22 12:28:19;;;;;;;2.20;1.50;;;16.50;99.90;;;;;;6237158;22;20394;-95
2023/10/22 12:34:51;;;;;;;7.67;4.40;;;16.30;99.90;;;;;;6246803;22;20425;-93
2023/10/22 13:37:19;;;;;;;1.63;1.53;;;15.70;99.90;;;;;;6123445;22;21065;-90
2023/10/22 13:39:46;;;;;;;2.60;2.40;;;15.70;99.90;;;;;;6220413;23;20390;-89
2023/10/22 13:42:13;;;;;;;2.03;1.83;;;15.60;99.90;;;;;;6220679;22;20403;-89
2023/10/22 13:44:42;;;;;;;1.93;1.63;;;15.50;30.50;;;;;;6225808;22;20394;-90
2023/10/22 13:47:10;;;;;;;4.90;1.70;;;15.50;99.90;;;;;;6227600;22;20777;-90
2023/10/22 13:49:37;;;;;;;1.77;1.67;;;15.60;99.90;;;;;;6258878;23;20437;-89
2023/10/22 13:52:05;;;;;;;5.30;2.43;;;15.60;1.00;;;;;;6261064;23;20416;-89
2023/10/22 13:54:33;;;;;;;8.67;3.30;;;15.70;1.00;;;;;;6262110;23;20402;-91
2023/10/22 13:57:00;;;;;;;5.27;2.67;;;;;;;;;;6266599;23;20405;-89
2023/10/22 13:59:27;;;;;;;3.87;1.73;;;15.70;99.90;;;;;;6263612;22;20406;-90
2023/10/22 14:01:54;;;;;;;2.37;1.80;;;15.50;1.00;;;;;;6259127;23;20437;-90
2023/10/22 14:04:21;;;;;;;2.60;2.40;;;15.80;99.90;;;;;;6268410;23;20430;-90
2023/10/22 14:06:48;;;;;;;2.23;2.03;;;16.20;1.00;;;;;;6265513;23;20412;-90
2023/10/22 14:09:16;;;;;;;6.30;1.87;;;15.70;99.90;;;;;;6262395;22;20414;-90
2023/10/22 14:11:44;;;;;;;4.70;2.40;;;15.80;1.00;;;;;;6256453;23;20437;-90
2023/10/22 14:14:11;;;;;;;4.70;3.23;;;15.90;99.90;;;;;;6252450;23;20437;-90
2023/10/22 14:16:38;;;;;;;3.03;2.07;;;15.90;99.90;;;;;;6253946;22;20898;-90
2023/10/22 14:19:05;;;;;;;5.07;3.60;;;;;;;;;;6254371;23;20422;-90
2023/10/22 14:21:32;;;;;;;5.13;2.97;;;15.90;33.40;;;;;;6258150;23;20406;-90
2023/10/22 14:24:00;;;;;;;3.17;2.40;;;;;;;;;;6253853;22;20405;-90
2023/10/22 14:26:26;;;;;;;3.30;3.00;;;16.30;1.00;;;;;;6253730;22;20435;-91
2023/10/22 14:28:55;;;;;;;4.90;3.83;;;15.50;99.90;;;;;;6256030;23;20414;-91
2023/10/22 14:31:22;;;;;;;5.80;3.70;;;15.50;99.90;;;;;;6259902;22;20461;-90
2023/10/22 14:33:52;;;;;;;2.23;1.60;;;15.40;99.90;;;;;;6256965;23;20883;-92
2023/10/22 14:36:18;;;;;;;4.77;2.93;;;16.40;41.00;;;;;;6258287;23;20401;-90
2023/10/22 14:38:48;;;;;;;3.23;1.50;;;15.30;1.00;;;;;;6267913;22;20422;-94
2023/10/22 14:41:15;;;;;;;5.17;1.97;;;15.30;99.90;;;;;;6267641;22;20382;-90
2023/10/22 14:43:42;;;;;;;3.53;1.93;;;;;;;;;;6269996;22;20389;-91
2023/10/22 14:46:10;;;;;;;11.83;7.33;;;15.30;1.00;;;;;;6270142;22;20409;-90
2023/10/22 14:48:37;;;;;;;2.93;2.00;;;15.30;99.90;;;;;;6267312;22;20440;-91
2023/10/22 14:51:04;;;;;;;5.17;2.70;;;15.30;1.00;;;;;;6255594;22;20448;-91
2023/10/22 14:53:33;;;;;;;3.43;2.90;;;;;;;;;;6257316;23;20390;-90
2023/10/22 14:56:01;;;;;;;6.67;2.80;;;15.20;1.00;;;;;;6255062;23;20441;-92
2023/10/22 14:58:31;;;;;;;3.40;3.10;;;15.70;1.00;;;;;;6259854;23;20443;-92
2023/10/22 15:01:02;;;;;;;8.67;3.50;;;15.10;1.00;;;;;;6266140;23;20397;-92
2023/10/22 15:06:15;;;;;;;3.43;3.07;;;;;;;;;;6258180;22;20402;-91
2023/10/22 15:08:42;;;;;;;5.47;3.23;;;15.00;1.00;;;;;;6253275;23;20432;-90
2023/10/22 15:11:15;;;;;;;5.60;2.63;;;14.90;1.00;;;;;;6253716;22;20441;-90
2023/10/22 15:13:42;;;;;;;5.43;2.90;;;15.10;99.90;;;;;;6258313;23;20397;-91
2023/10/22 15:16:12;;;;;;;6.40;3.90;;;14.80;99.90;;;;;;6255366;23;20401;-91
2023/10/22 15:18:43;;;;;;;4.07;2.60;;;15.00;99.90;;;;;;6255663;22;20429;-92
2023/10/22 15:21:11;;;;;;;4.50;2.63;;;14.80;99.90;;;;;;6256351;23;20428;-91
2023/10/22 15:23:39;;;;;;;6.10;4.00;;;;;;;;;;6256743;23;20405;-91
2023/10/22 15:26:06;;;;;;;4.63;2.90;;;14.70;1.00;;;;;;6258217;23;20398;-90
2023/10/22 15:28:33;;;;;;;3.20;2.90;;;14.70;1.00;;;;;;6268782;22;20458;-90
2023/10/22 15:31:02;;;;;;;4.37;3.13;;;14.50;99.90;;;;;;6269733;22;20436;-89
2023/10/22 15:33:29;;;;;;;4.53;3.10;;;15.00;99.90;;;;;;6261222;22;20394;-90
2023/10/22 15:36:00;;;;;;;4.40;3.90;;;14.60;99.90;;;;;;6265301;22;20411;-92
2023/10/22 15:38:28;;;;;;;5.50;4.80;;;14.60;99.90;;;;;;6256137;23;20471;-90
2023/10/22 15:41:00;;;;;;;6.23;3.40;;;14.70;84.40;;;;;;6257090;22;20448;-90
2023/10/22 15:43:27;;;;;;;5.00;3.30;;;14.50;99.90;;;;;;6252553;22;20398;-91
2023/10/22 15:45:56;;;;;;;3.53;3.10;;;14.40;59.40;;;;;;6256629;23;20400;-89
2023/10/22 15:48:26;;;;;;;5.47;2.80;;;14.50;99.90;;;;;;6256816;23;20429;-91
2023/10/22 15:50:53;;;;;;;6.93;3.00;;;14.30;99.90;;;;;;6256136;23;20469;-91
2023/10/22 15:53:21;;;;;;;7.90;3.83;;;14.20;12.20;;;;;;6255749;23;20406;-91
2023/10/22 15:55:48;;;;;;;4.07;2.80;;;14.10;99.90;;;;;;6258514;23;20413;-92
2023/10/22 15:58:15;;;;;;;4.67;3.27;;;;;;;;;;6255405;22;20425;-91
2023/10/22 16:00:42;;;;;;;4.17;3.70;;;14.10;99.90;;;;;;6251739;23;20401;-92
2023/10/22 16:03:09;;;;;;;4.73;2.93;;;14.20;99.90;;;;;;6258913;23;20435;-91
2023/10/22 16:05:40;;;;;;;4.53;3.37;;;13.90;99.90;;;;;;6265952;22;20390;-91
2023/10/22 16:08:07;;;;;;;6.30;4.00;;;13.90;1.00;;;;;;6269958;22;20433;-90
2023/10/22 16:10:36;;;;;;;3.97;2.73;;;14.30;99.90;;;;;;6270206;22;20449;-90
2023/10/22 16:13:03;;;;;;;5.50;4.40;;;14.10;99.90;;;;;;6270204;22;20465;-90
2023/10/22 16:15:31;;;;;;;5.30;3.83;;;;;;;;;;6270154;22;20414;-90
2023/10/22 16:17:58;;;;;;;8.80;5.90;;;13.60;99.90;;;;;;6269966;22;20426;-90
2023/10/22 16:20:25;;;;;;;6.80;5.60;;;13.60;1.00;;;;;;6269511;22;20402;-89
2023/10/22 16:22:52;;;;;;;11.47;8.10;;;;;;;;;;6262971;22;20454;-90
2023/10/22 16:25:20;;;;;;;8.70;4.67;;;;;;;;;;6261840;22;20413;-90
2023/10/22 16:27:48;;;;;;;4.57;4.17;;;13.70;1.00;;;;;;6260694;23;20500;-90
2023/10/22 16:30:15;;;;;;;5.50;4.70;;;13.70;1.00;;;;;;6265169;22;20410;-90
2023/10/22 16:32:43;;;;;;;6.40;3.57;;;13.60;99.90;;;;;;6260754;22;20389;-91
2023/10/22 16:35:12;;;;;;;12.40;8.60;;;13.60;1.00;;;;;;6257401;23;20425;-91
2023/10/22 16:37:39;;;;;;;11.03;6.20;;;13.60;1.00;;;;;;6260888;23;20452;-90
2023/10/22 16:40:07;;;;;;;7.83;5.27;;;13.60;99.90;;;;;;6256451;23;20397;-91
2023/10/22 16:42:34;;;;;;;6.40;4.60;;;13.50;1.00;;;;;;6255346;22;20406;-91
2023/10/22 16:45:03;;;;;;;5.47;4.10;;;13.70;99.90;;;;;;6254205;22;20439;-91
2023/10/22 16:47:30;;;;;;;5.60;3.80;;;13.50;1.00;;;;;;6253610;23;20436;-90
2023/10/22 16:49:57;;;;;;;7.07;4.03;;;13.10;99.90;;;;;;6268555;22;20423;-88
2023/10/22 16:52:28;;;;;;;5.47;3.90;;;13.10;99.90;;;;;;6269911;22;20413;-89
2023/10/22 16:54:55;;;;;;;7.50;5.33;;;13.50;99.90;;;;;;6269997;22;20378;-90
2023/10/22 16:57:22;;;;;;;5.10;4.60;;;;;;;;;;6269447;22;20406;-89
2023/10/22 16:59:50;;;;;;;7.30;4.90;;;13.50;99.90;;;;;;6251923;22;20405;-91
2023/10/22 17:02:18;;;;;;;10.90;6.40;;;13.50;99.90;;;;;;6252141;22;20405;-91
2023/10/22 17:04:45;;;;;;;12.13;5.87;;;;;;;;;;6253503;23;20419;-91
2023/10/22 17:07:13;;;;;;;7.70;6.30;;;13.40;99.90;;;;;;6254511;22;20425;-91
2023/10/22 17:09:40;;;;;;;6.70;4.57;;;13.30;99.90;;;;;;6260838;22;20389;-90
2023/10/22 17:12:08;;;;;;;11.97;8.20;;;13.40;99.40;;;;;;6269252;22;20502;-90
2023/10/22 17:14:35;;;;;;;8.43;6.67;;;13.50;63.50;;;;;;6264260;23;20408;-90
2023/10/22 17:17:02;;;;;;;9.23;5.70;;;13.30;99.90;;;;;;6259517;23;20431;-90
2023/10/22 17:19:31;;;;;;;7.47;4.60;;;13.50;1.00;;;;;;6258272;23;20480;-90
2023/10/22 17:21:57;;;;;;;9.33;3.40;;;13.50;1.00;;;;;;6255673;23;20440;-90
2023/10/22 17:24:26;;;;;;;4.90;4.23;;;13.50;65.20;;;;;;6256663;23;20429;-90
2023/10/22 17:26:56;;;;;;;4.37;3.87;;;13.50;52.10;;;;;;6256637;22;20409;-90
2023/10/22 17:29:23;;;;;;;9.27;5.50;;;13.50;1.00;;;;;;6252838;23;20731;-89
2023/10/22 17:31:50;;;;;;;5.83;3.90;;;13.60;47.10;;;;;;6250501;23;20848;-90
2023/10/22 17:34:17;;;;;;;5.53;4.00;;;13.60;99.90;;;;;;6251601;23;20417;-90
2023/10/22 17:36:46;;;;;;;4.80;3.40;;;13.50;99.90;;;;;;6256777;22;20409;-90
2023/10/22 17:39:13;;;;;;;8.03;5.17;;;13.60;98.70;;;;;;6270985;22;20374;-91
2023/10/22 17:41:40;;;;;;;4.67;3.90;;;13.60;87.00;;;;;;6270886;22;20397;-90
2023/10/22 17:44:07;;;;;;;5.10;4.30;;;13.60;99.90;;;;;;6266444;22;20409;-89
2023/10/22 17:46:34;;;;;;;5.33;4.00;;;13.60;1.00;;;;;;6260361;23;20457;-91
2023/10/22 17:49:01;;;;;;;5.83;4.67;;;13.50;99.90;;;;;;6258549;23;20424;-91
2023/10/22 17:51:28;;;;;;;13.00;6.93;;;13.50;83.30;;;;;;6265329;22;20441;-91
2023/10/22 17:53:56;;;;;;;10.23;6.40;;;13.60;99.90;;;;;;6270802;22;20401;-90
2023/10/22 17:56:24;;;;;;;16.77;5.80;;;13.10;1.00;;;;;;6270318;22;20401;-91
2023/10/22 17:58:51;;;;;;;7.97;5.23;;;13.40;99.90;;;;;;6267624;22;20422;-90
2023/10/22 18:01:18;;;;;;;12.63;4.90;;;13.30;1.00;;;;;;6268707;23;20378;-90
2023/10/22 18:03:48;;;;;;;41.70;30.60;;;;;;;;;;6264405;22;20413;-91
2023/10/22 18:06:15;;;;;;;11.33;5.87;;;13.30;99.90;;;;;;6262068;23;20432;-90
2023/10/22 18:08:42;;;;;;;8.63;5.00;;;;;;;;;;6256700;23;20457;-91
2023/10/22 18:11:11;;;;;;;7.93;5.17;;;13.30;1.00;;;;;;6264270;23;20429;-91
2023/10/22 18:13:38;;;;;;;8.90;5.20;;;;;;;;;;6263168;23;20422;-90
2023/10/22 18:16:05;;;;;;;7.17;5.63;;;13.60;1.00;;;;;;6263100;22;20401;-91
2023/10/22 18:18:32;;;;;;;5.50;4.60;;;13.30;99.90;;;;;;6259673;23;20474;-91
2023/10/22 18:21:03;;;;;;;9.50;5.77;;;13.30;1.00;;;;;;6256728;23;20393;-92
2023/10/22 18:23:32;;;;;;;4.03;3.63;;;13.40;99.90;;;;;;6256785;22;20397;-91
2023/10/22 18:26:00;;;;;;;4.03;3.63;;;13.30;99.90;;;;;;6255116;23;20429;-92
2023/10/22 18:28:28;;;;;;;7.47;4.43;;;13.40;99.90;;;;;;6254124;23;20463;-91
2023/10/22 18:30:55;;;;;;;11.23;5.43;;;13.40;99.90;;;;;;6251734;23;20443;-91
2023/10/22 18:33:22;;;;;;;12.30;7.90;;;13.30;99.90;;;;;;6256545;22;20887;-92
2023/10/22 18:35:49;;;;;;;5.30;4.43;;;13.20;1.00;;;;;;6259236;23;20405;-91
2023/10/22 18:38:16;;;;;;;6.20;3.67;;;13.30;1.00;;;;;;6261020;22;20448;-90
2023/10/22 18:40:46;;;;;;;7.57;4.50;;;13.30;1.00;;;;;;6261740;22;20406;-90
2023/10/22 18:43:14;;;;;;;6.87;5.10;;;13.30;1.00;;;;;;6255959;23;20406;-92
2023/10/22 18:45:43;;;;;;;8.40;4.70;;;13.30;1.00;;;;;;6257107;23;20418;-90
2023/10/22 18:48:19;;;;;;;6.47;4.63;;;13.20;1.00;;;;;;6267168;22;20422;-92
2023/10/22 18:50:57;;;;;;;8.30;4.77;;;13.30;1.00;;;;;;6264114;22;20420;-91
2023/10/22 18:53:24;;;;;;;4.50;3.43;;;13.40;1.00;;;;;;6252851;23;20436;-91
2023/10/22 18:55:54;;;;;;;4.57;4.03;;;13.30;5.70;;;;;;6265005;22;20397;-91
2023/10/22 18:58:21;;;;;;;6.23;3.23;;;;;;;;;;6256581;23;20422;-91
2023/10/22 19:00:50;;;;;;;6.57;4.10;;;13.30;1.00;;;;;;6252919;22;20599;-91
2023/10/22 19:03:18;;;;;;;4.87;3.80;;;13.60;1.00;;;;;;6255750;23;20433;-91
2023/10/22 19:05:45;;;;;;;4.43;2.97;;;13.30;99.90;;;;;;6258544;23;20756;-90
2023/10/22 19:08:13;;;;;;;6.00;3.33;;;13.20;1.00;;;;;;6252168;22;20433;-91
2023/10/22 19:10:41;;;;;;;5.40;2.93;;;13.40;1.00;;;;;;6254685;23;20406;-91
2023/10/22 19:13:10;;;;;;;11.60;5.00;;;13.20;1.00;;;;;;6256346;23;20437;-91
2023/10/22 19:15:38;;;;;;;7.20;4.03;;;13.10;5.00;;;;;;6258268;23;20462;-90
2023/10/22 19:18:07;;;;;;;5.77;4.30;;;13.20;1.00;;;;;;6255192;22;20429;-90
2023/10/22 19:20:35;;;;;;;7.03;5.27;;;13.10;1.00;;;;;;6252322;23;20433;-91
2023/10/22 19:23:03;;;;;;;5.63;2.30;;;13.20;99.90;;;;;;6253837;23;20428;-90
2023/10/22 19:25:31;;;;;;;3.60;1.90;;;;;;;;;;6255074;23;20401;-90
2023/10/22 19:27:58;;;;;;;5.00;2.07;;;;;;;;;;6253657;23;20482;-92
2023/10/22 19:30:29;;;;;;;5.07;2.67;;;;;;;;;;6257237;22;20440;-91
2023/10/22 19:32:57;;;;;;;3.10;2.90;;;;;;;;;;6257746;22;20489;-91
2023/10/22 19:35:26;;;;;;;4.20;2.90;;;13.30;99.90;;;;;;6266430;22;20400;-90
2023/10/22 19:37:54;;;;;;;9.23;4.20;;;13.00;1.00;;;;;;6270053;22;20433;-90
2023/10/22 19:40:21;;;;;;;6.90;4.50;;;;;;;;;;6270506;22;20397;-91
2023/10/22 19:42:48;;;;;;;7.07;4.27;;;;;;;;;;6270098;22;20452;-89
2023/10/22 19:45:15;;;;;;;3.40;3.10;;;12.70;99.90;;;;;;6270430;22;20392;-89
2023/10/22 19:47:43;;;;;;;3.83;2.97;;;13.00;99.90;;;;;;6270011;22;20433;-90
2023/10/22 19:50:10;;;;;;;3.70;3.00;;;;;;;;;;6269601;22;20500;-90
